Atyray, Kazakhstan

7:17 AM AQTT on August 31, 2014 (GMT +0500)
Atyrau | Change Station
CLOSE
Current Station
Airport
Location: Atyrau,
Elevation: -72 ft
Nearby Weather Stations

Elev -72 ft 47.12 °N, 51.83 °E | Updated 17 minutes ago

Clear
Clear
48 °F
Feels Like 48 °F
N
4
Wind Variable Wind from SW

Today
High -- | Low -- °F
--% Chance of Precip.
Yesterday
High -- | Low -- °F
Precip. -- in
6:49 AM 8:14 PM
Waxing Crescent, 26% visible
Pressure 30.06 in
Visibility -9999.0 miles
Clouds
Dew Point 41 °F
Humidity 76%
Rainfall 0.00 in
Snow Depth Not available.
UV Not available.
Pollen Not available.
Air Quality Not available.
Flu Activity Not available.
METAR UATG 310200Z 23002MPS CAVOK 09/05 Q1018 R32/CLRD70 NOSIG RMK QFE765/1021

More Conditions Fewer Conditions

Pressure 30.06 in
Visibility -9999.0 miles
Clouds
Dew Point 41 °F
Humidity 76%
Rainfall 0.00 in
Snow Depth Not available.
UV Not available.
Pollen Not available.
Air Quality Not available.
Flu Activity Not available.
METAR UATG 310200Z 23002MPS CAVOK 09/05 Q1018 R32/CLRD70 NOSIG RMK QFE765/1021

More Conditions Fewer Conditions

10-Day Weather Forecast

Almanac

Astronomy

Aug. 31, 2014 Rise Set
Actual Time 6:49 AM AQTT 8:14 PM AQTT
Civil Twilight 6:17 AM AQTT 8:46 PM AQTT
Nautical Twilight 5:39 AM AQTT 9:24 PM AQTT
Astronomical Twilight 4:58 AM AQTT 10:05 PM AQTT
Moon 12:36 PM AQTT 10:49 PM AQTT
Length of Visible Light 14h 28m
Length of Day
13h 25m
Tomorrow will be 3m 14s shorter.
Waxing Crescent, 26% of the Moon is Illuminated
Aug 30
Waxing Crescent
Sep 2
First Quarter
Sep 8
Full
Sep 15
Last Quarter
Sep 24
New

Yesterday's Extremes

Country Highs Country Lows

Community

WunderPhotos

Upload Photos

1,748,736 photos uploaded!

Nearby

Snow Depth

Not available.

Earthquake Activity

City Distance Mag. Time & Date
No recent earthquake activity has been reported nearby.
Minimum magnitude displayed is 2.5.

Coastal Water Temperatures

Place Temperature
No Stations Reporting

Nearby Weather Stations